sensor_id;sensor_type;location;lat;lon;timestamp;temperature;humidity
37222;DHT22;23119;51.842;-2.230;2023-03-01T00:02:07;6.30;99.90
37222;DHT22;23119;51.842;-2.230;2023-03-01T00:04:36;6.40;99.90
37222;DHT22;23119;51.842;-2.230;2023-03-01T00:07:04;6.40;99.90
37222;DHT22;23119;51.842;-2.230;2023-03-01T00:09:32;6.40;99.90
37222;DHT22;23119;51.842;-2.230;2023-03-01T00:12:06;6.40;99.90
37222;DHT22;23119;51.842;-2.230;2023-03-01T00:14:36;6.30;99.90
37222;DHT22;23119;51.842;-2.230;2023-03-01T00:17:04;6.40;99.90
37222;DHT22;23119;51.842;-2.230;2023-03-01T00:19:30;6.30;99.90
37222;DHT22;23119;51.842;-2.230;2023-03-01T00:21:58;6.30;99.90
37222;DHT22;23119;51.842;-2.230;2023-03-01T00:24:23;6.30;99.90
37222;DHT22;23119;51.842;-2.230;2023-03-01T00:26:53;6.30;99.90
37222;DHT22;23119;51.842;-2.230;2023-03-01T00:29:25;6.30;99.90
37222;DHT22;23119;51.842;-2.230;2023-03-01T00:31:54;6.30;99.90
37222;DHT22;23119;51.842;-2.230;2023-03-01T00:34:24;6.30;99.90
37222;DHT22;23119;51.842;-2.230;2023-03-01T00:36:50;6.30;99.90
37222;DHT22;23119;51.842;-2.230;2023-03-01T00:39:24;6.30;99.90
37222;DHT22;23119;51.842;-2.230;2023-03-01T00:41:52;6.20;99.90
37222;DHT22;23119;51.842;-2.230;2023-03-01T00:44:27;6.30;99.90
37222;DHT22;23119;51.842;-2.230;2023-03-01T00:46:53;6.20;99.90
37222;DHT22;23119;51.842;-2.230;2023-03-01T00:49:31;6.20;99.90
37222;DHT22;23119;51.842;-2.230;2023-03-01T00:51:57;6.20;99.90
37222;DHT22;23119;51.842;-2.230;2023-03-01T00:54:27;6.20;99.90
37222;DHT22;23119;51.842;-2.230;2023-03-01T00:56:55;6.20;99.90
37222;DHT22;23119;51.842;-2.230;2023-03-01T00:59:21;6.20;99.90
37222;DHT22;23119;51.842;-2.230;2023-03-01T01:01:55;6.20;99.90
37222;DHT22;23119;51.842;-2.230;2023-03-01T01:04:21;6.20;99.90
37222;DHT22;23119;51.842;-2.230;2023-03-01T01:06:49;6.10;99.90
37222;DHT22;23119;51.842;-2.230;2023-03-01T01:09:19;6.10;99.90
37222;DHT22;23119;51.842;-2.230;2023-03-01T01:11:49;6.10;99.90
37222;DHT22;23119;51.842;-2.230;2023-03-01T01:14:19;6.10;99.90
37222;DHT22;23119;51.842;-2.230;2023-03-01T01:16:52;6.00;99.90
37222;DHT22;23119;51.842;-2.230;2023-03-01T01:19:18;6.00;99.90
37222;DHT22;23119;51.842;-2.230;2023-03-01T01:21:46;6.00;99.90
37222;DHT22;23119;51.842;-2.230;2023-03-01T01:24:16;6.00;99.90
37222;DHT22;23119;51.842;-2.230;2023-03-01T01:26:45;6.00;99.90
37222;DHT22;23119;51.842;-2.230;2023-03-01T01:29:11;5.90;99.90
37222;DHT22;23119;51.842;-2.230;2023-03-01T01:31:39;5.90;99.90
37222;DHT22;23119;51.842;-2.230;2023-03-01T01:34:07;6.00;99.90
37222;DHT22;23119;51.842;-2.230;2023-03-01T01:36:47;5.90;99.90
37222;DHT22;23119;51.842;-2.230;2023-03-01T01:39:15;5.90;99.90
37222;DHT22;23119;51.842;-2.230;2023-03-01T01:41:47;5.90;99.90
37222;DHT22;23119;51.842;-2.230;2023-03-01T01:47:01;5.90;99.90
37222;DHT22;23119;51.842;-2.230;2023-03-01T01:49:37;5.90;99.90
37222;DHT22;23119;51.842;-2.230;2023-03-01T01:52:24;5.90;99.90
37222;DHT22;23119;51.842;-2.230;2023-03-01T01:55:17;5.90;99.90
37222;DHT22;23119;51.842;-2.230;2023-03-01T01:58:07;5.90;99.90
37222;DHT22;23119;51.842;-2.230;2023-03-01T02:00:37;5.90;99.90
37222;DHT22;23119;51.842;-2.230;2023-03-01T02:03:08;5.90;99.90
37222;DHT22;23119;51.842;-2.230;2023-03-01T02:08:12;5.90;99.90
37222;DHT22;23119;51.842;-2.230;2023-03-01T02:10:39;5.90;99.90
37222;DHT22;23119;51.842;-2.230;2023-03-01T02:13:11;5.90;99.90
37222;DHT22;23119;51.842;-2.230;2023-03-01T02:15:46;5.90;99.90
37222;DHT22;23119;51.842;-2.230;2023-03-01T02:18:18;5.90;99.90
37222;DHT22;23119;51.842;-2.230;2023-03-01T02:20:48;5.90;99.90
37222;DHT22;23119;51.842;-2.230;2023-03-01T02:23:16;5.90;99.90
37222;DHT22;23119;51.842;-2.230;2023-03-01T02:25:57;5.80;99.90
37222;DHT22;23119;51.842;-2.230;2023-03-01T02:28:30;5.90;99.90
37222;DHT22;23119;51.842;-2.230;2023-03-01T02:30:58;5.80;99.90
37222;DHT22;23119;51.842;-2.230;2023-03-01T02:33:45;5.80;99.90
37222;DHT22;23119;51.842;-2.230;2023-03-01T02:36:17;5.80;99.90
37222;DHT22;23119;51.842;-2.230;2023-03-01T02:38:46;5.80;99.90
37222;DHT22;23119;51.842;-2.230;2023-03-01T02:41:15;5.70;99.90
37222;DHT22;23119;51.842;-2.230;2023-03-01T02:43:46;5.80;99.90
37222;DHT22;23119;51.842;-2.230;2023-03-01T02:46:20;5.70;99.90
37222;DHT22;23119;51.842;-2.230;2023-03-01T02:48:59;5.70;99.90
37222;DHT22;23119;51.842;-2.230;2023-03-01T02:56:47;5.70;99.90
37222;DHT22;23119;51.842;-2.230;2023-03-01T02:59:21;5.70;99.90
37222;DHT22;23119;51.842;-2.230;2023-03-01T03:01:50;5.70;99.90
37222;DHT22;23119;51.842;-2.230;2023-03-01T03:04:19;5.70;99.90
37222;DHT22;23119;51.842;-2.230;2023-03-01T03:06:48;5.60;99.90
37222;DHT22;23119;51.842;-2.230;2023-03-01T03:09:21;5.60;99.90
37222;DHT22;23119;51.842;-2.230;2023-03-01T03:11:49;5.60;99.90
37222;DHT22;23119;51.842;-2.230;2023-03-01T03:14:18;5.60;99.90
37222;DHT22;23119;51.842;-2.230;2023-03-01T03:16:50;5.60;99.90
37222;DHT22;23119;51.842;-2.230;2023-03-01T03:19:21;5.60;99.90
37222;DHT22;23119;51.842;-2.230;2023-03-01T03:21:49;5.70;99.90
37222;DHT22;23119;51.842;-2.230;2023-03-01T03:24:20;5.60;99.90
37222;DHT22;23119;51.842;-2.230;2023-03-01T03:26:55;5.80;99.90
37222;DHT22;23119;51.842;-2.230;2023-03-01T03:29:24;5.60;99.90
37222;DHT22;23119;51.842;-2.230;2023-03-01T03:31:50;5.60;99.90
37222;DHT22;23119;51.842;-2.230;2023-03-01T03:34:15;5.50;99.90
37222;DHT22;23119;51.842;-2.230;2023-03-01T03:36:43;5.50;99.90
37222;DHT22;23119;51.842;-2.230;2023-03-01T03:39:14;5.50;99.90
37222;DHT22;23119;51.842;-2.230;2023-03-01T03:41:48;5.60;99.90
37222;DHT22;23119;51.842;-2.230;2023-03-01T03:44:25;5.50;99.90
37222;DHT22;23119;51.842;-2.230;2023-03-01T03:46:53;5.50;99.90
37222;DHT22;23119;51.842;-2.230;2023-03-01T03:49:27;5.50;99.90
37222;DHT22;23119;51.842;-2.230;2023-03-01T03:51:55;5.50;99.90
37222;DHT22;23119;51.842;-2.230;2023-03-01T03:54:26;5.40;99.90
37222;DHT22;23119;51.842;-2.230;2023-03-01T03:56:55;5.50;99.90
37222;DHT22;23119;51.842;-2.230;2023-03-01T03:59:26;5.40;99.90
37222;DHT22;23119;51.842;-2.230;2023-03-01T04:01:52;5.40;99.90
37222;DHT22;23119;51.842;-2.230;2023-03-01T04:04:23;5.40;99.90
37222;DHT22;23119;51.842;-2.230;2023-03-01T04:06:51;5.40;99.90
37222;DHT22;23119;51.842;-2.230;2023-03-01T04:09:17;5.40;99.90
37222;DHT22;23119;51.842;-2.230;2023-03-01T04:11:42;5.50;99.90
37222;DHT22;23119;51.842;-2.230;2023-03-01T04:14:08;5.50;99.90
37222;DHT22;23119;51.842;-2.230;2023-03-01T04:16:35;5.50;99.90
37222;DHT22;23119;51.842;-2.230;2023-03-01T04:19:00;5.50;99.90
37222;DHT22;23119;51.842;-2.230;2023-03-01T04:21:33;5.50;99.90
37222;DHT22;23119;51.842;-2.230;2023-03-01T04:24:01;5.40;99.90
37222;DHT22;23119;51.842;-2.230;2023-03-01T04:26:31;5.40;99.90
37222;DHT22;23119;51.842;-2.230;2023-03-01T04:28:59;5.40;99.90
37222;DHT22;23119;51.842;-2.230;2023-03-01T04:31:27;5.40;99.90
37222;DHT22;23119;51.842;-2.230;2023-03-01T04:33:56;5.40;99.90
37222;DHT22;23119;51.842;-2.230;2023-03-01T04:36:27;5.40;99.90
37222;DHT22;23119;51.842;-2.230;2023-03-01T04:38:57;5.50;99.90
37222;DHT22;23119;51.842;-2.230;2023-03-01T04:41:24;5.50;99.90
37222;DHT22;23119;51.842;-2.230;2023-03-01T04:43:53;5.40;99.90
37222;DHT22;23119;51.842;-2.230;2023-03-01T04:46:23;5.40;99.90
37222;DHT22;23119;51.842;-2.230;2023-03-01T04:48:54;5.60;99.90
37222;DHT22;23119;51.842;-2.230;2023-03-01T04:51:29;5.50;99.90
37222;DHT22;23119;51.842;-2.230;2023-03-01T04:53:57;5.40;99.90
37222;DHT22;23119;51.842;-2.230;2023-03-01T04:56:25;5.50;99.90
37222;DHT22;23119;51.842;-2.230;2023-03-01T04:58:55;5.50;99.90
37222;DHT22;23119;51.842;-2.230;2023-03-01T05:01:24;5.50;99.90
37222;DHT22;23119;51.842;-2.230;2023-03-01T05:03:51;5.50;99.90
37222;DHT22;23119;51.842;-2.230;2023-03-01T05:06:23;5.50;99.90
37222;DHT22;23119;51.842;-2.230;2023-03-01T05:08:54;5.40;99.90
37222;DHT22;23119;51.842;-2.230;2023-03-01T05:11:19;5.50;99.90
37222;DHT22;23119;51.842;-2.230;2023-03-01T05:13:48;5.40;99.90
37222;DHT22;23119;51.842;-2.230;2023-03-01T05:16:20;5.40;99.90
37222;DHT22;23119;51.842;-2.230;2023-03-01T05:18:45;5.40;99.90
37222;DHT22;23119;51.842;-2.230;2023-03-01T05:21:17;5.40;99.90
37222;DHT22;23119;51.842;-2.230;2023-03-01T05:23:45;5.30;99.90
37222;DHT22;23119;51.842;-2.230;2023-03-01T05:26:12;5.30;99.90
37222;DHT22;23119;51.842;-2.230;2023-03-01T05:28:41;5.30;99.90
37222;DHT22;23119;51.842;-2.230;2023-03-01T05:31:07;5.20;99.90
37222;DHT22;23119;51.842;-2.230;2023-03-01T05:33:41;5.20;99.90
37222;DHT22;23119;51.842;-2.230;2023-03-01T05:36:09;5.20;99.90
37222;DHT22;23119;51.842;-2.230;2023-03-01T05:38:38;5.20;99.90
37222;DHT22;23119;51.842;-2.230;2023-03-01T05:41:04;5.10;99.90
37222;DHT22;23119;51.842;-2.230;2023-03-01T05:43:32;5.10;99.90
37222;DHT22;23119;51.842;-2.230;2023-03-01T05:46:01;5.20;99.90
37222;DHT22;23119;51.842;-2.230;2023-03-01T05:48:29;5.20;99.90
37222;DHT22;23119;51.842;-2.230;2023-03-01T05:51:02;5.30;99.90
37222;DHT22;23119;51.842;-2.230;2023-03-01T05:53:30;5.20;99.90
37222;DHT22;23119;51.842;-2.230;2023-03-01T05:55:56;5.20;99.90
37222;DHT22;23119;51.842;-2.230;2023-03-01T05:58:26;5.20;99.90
37222;DHT22;23119;51.842;-2.230;2023-03-01T06:00:52;5.10;99.90
37222;DHT22;23119;51.842;-2.230;2023-03-01T06:03:20;5.20;99.90
37222;DHT22;23119;51.842;-2.230;2023-03-01T06:05:56;5.30;99.90
37222;DHT22;23119;51.842;-2.230;2023-03-01T06:08:24;5.30;99.90
37222;DHT22;23119;51.842;-2.230;2023-03-01T06:10:52;5.20;99.90
37222;DHT22;23119;51.842;-2.230;2023-03-01T06:13:21;5.20;99.90
37222;DHT22;23119;51.842;-2.230;2023-03-01T06:15:47;5.20;99.90
37222;DHT22;23119;51.842;-2.230;2023-03-01T06:18:17;5.00;99.90
37222;DHT22;23119;51.842;-2.230;2023-03-01T06:20:57;5.20;99.90
37222;DHT22;23119;51.842;-2.230;2023-03-01T06:23:28;5.20;99.90
37222;DHT22;23119;51.842;-2.230;2023-03-01T06:25:54;5.20;99.90
37222;DHT22;23119;51.842;-2.230;2023-03-01T06:28:22;5.20;99.90
37222;DHT22;23119;51.842;-2.230;2023-03-01T06:30:49;5.20;99.90
37222;DHT22;23119;51.842;-2.230;2023-03-01T06:33:19;5.20;99.90
37222;DHT22;23119;51.842;-2.230;2023-03-01T06:35:46;5.20;99.90
37222;DHT22;23119;51.842;-2.230;2023-03-01T06:38:20;5.20;99.90
37222;DHT22;23119;51.842;-2.230;2023-03-01T06:40:55;5.10;99.90
37222;DHT22;23119;51.842;-2.230;2023-03-01T06:43:22;5.20;99.90
37222;DHT22;23119;51.842;-2.230;2023-03-01T06:45:51;5.10;99.90
37222;DHT22;23119;51.842;-2.230;2023-03-01T06:48:24;5.20;99.90
37222;DHT22;23119;51.842;-2.230;2023-03-01T06:50:57;5.10;99.90
37222;DHT22;23119;51.842;-2.230;2023-03-01T06:53:23;5.10;99.90
37222;DHT22;23119;51.842;-2.230;2023-03-01T06:55:54;5.10;99.90
37222;DHT22;23119;51.842;-2.230;2023-03-01T06:58:20;5.10;99.90
37222;DHT22;23119;51.842;-2.230;2023-03-01T07:00:51;5.10;99.90
37222;DHT22;23119;51.842;-2.230;2023-03-01T07:03:17;5.10;99.90
37222;DHT22;23119;51.842;-2.230;2023-03-01T07:05:43;5.10;99.90
37222;DHT22;23119;51.842;-2.230;2023-03-01T07:08:10;5.10;99.90
37222;DHT22;23119;51.842;-2.230;2023-03-01T07:10:36;5.10;99.90
37222;DHT22;23119;51.842;-2.230;2023-03-01T07:13:02;5.10;99.90
37222;DHT22;23119;51.842;-2.230;2023-03-01T07:15:28;5.10;99.90
37222;DHT22;23119;51.842;-2.230;2023-03-01T07:17:53;5.10;99.90
37222;DHT22;23119;51.842;-2.230;2023-03-01T07:20:25;5.10;99.90
37222;DHT22;23119;51.842;-2.230;2023-03-01T07:22:54;5.10;99.90
37222;DHT22;23119;51.842;-2.230;2023-03-01T07:25:29;5.30;99.90
37222;DHT22;23119;51.842;-2.230;2023-03-01T07:27:57;5.10;99.90
37222;DHT22;23119;51.842;-2.230;2023-03-01T07:30:26;5.10;99.90
37222;DHT22;23119;51.842;-2.230;2023-03-01T07:32:57;5.10;99.90
37222;DHT22;23119;51.842;-2.230;2023-03-01T07:35:24;5.10;99.90
37222;DHT22;23119;51.842;-2.230;2023-03-01T07:37:53;5.20;99.90
37222;DHT22;23119;51.842;-2.230;2023-03-01T07:40:22;5.10;99.90
37222;DHT22;23119;51.842;-2.230;2023-03-01T07:42:47;5.20;99.90
37222;DHT22;23119;51.842;-2.230;2023-03-01T07:45:18;5.20;99.90
37222;DHT22;23119;51.842;-2.230;2023-03-01T07:47:49;5.20;99.90
37222;DHT22;23119;51.842;-2.230;2023-03-01T07:50:15;5.30;99.90
37222;DHT22;23119;51.842;-2.230;2023-03-01T07:52:41;5.40;99.90
37222;DHT22;23119;51.842;-2.230;2023-03-01T07:55:10;5.30;99.90
37222;DHT22;23119;51.842;-2.230;2023-03-01T07:57:36;5.30;99.90
37222;DHT22;23119;51.842;-2.230;2023-03-01T08:00:05;5.40;99.90
37222;DHT22;23119;51.842;-2.230;2023-03-01T08:02:39;5.40;99.90
37222;DHT22;23119;51.842;-2.230;2023-03-01T08:05:16;5.50;99.90
37222;DHT22;23119;51.842;-2.230;2023-03-01T08:07:41;5.40;99.90
37222;DHT22;23119;51.842;-2.230;2023-03-01T08:10:13;5.40;99.90
37222;DHT22;23119;51.842;-2.230;2023-03-01T08:12:39;5.40;99.90
37222;DHT22;23119;51.842;-2.230;2023-03-01T08:15:05;5.40;99.90
37222;DHT22;23119;51.842;-2.230;2023-03-01T08:17:31;5.50;99.90
37222;DHT22;23119;51.842;-2.230;2023-03-01T08:20:03;5.50;99.90
37222;DHT22;23119;51.842;-2.230;2023-03-01T08:22:31;5.60;99.90
37222;DHT22;23119;51.842;-2.230;2023-03-01T08:25:05;5.60;99.90
37222;DHT22;23119;51.842;-2.230;2023-03-01T08:27:31;5.60;99.90
37222;DHT22;23119;51.842;-2.230;2023-03-01T08:29:57;5.70;99.90
37222;DHT22;23119;51.842;-2.230;2023-03-01T08:32:28;5.80;99.90
37222;DHT22;23119;51.842;-2.230;2023-03-01T08:34:57;5.90;99.90
37222;DHT22;23119;51.842;-2.230;2023-03-01T08:37:23;6.00;99.90
37222;DHT22;23119;51.842;-2.230;2023-03-01T08:39:54;6.00;99.90
37222;DHT22;23119;51.842;-2.230;2023-03-01T08:42:20;6.00;99.90
37222;DHT22;23119;51.842;-2.230;2023-03-01T08:44:46;6.10;99.90
37222;DHT22;23119;51.842;-2.230;2023-03-01T08:47:11;6.10;99.90
37222;DHT22;23119;51.842;-2.230;2023-03-01T08:49:37;6.10;99.90
37222;DHT22;23119;51.842;-2.230;2023-03-01T08:55:10;6.80;99.90
37222;DHT22;23119;51.842;-2.230;2023-03-01T08:57:36;6.40;99.90
37222;DHT22;23119;51.842;-2.230;2023-03-01T09:00:05;6.50;99.90
37222;DHT22;23119;51.842;-2.230;2023-03-01T09:02:34;6.70;99.90
37222;DHT22;23119;51.842;-2.230;2023-03-01T09:04:59;6.70;99.90
37222;DHT22;23119;51.842;-2.230;2023-03-01T09:07:29;6.70;99.90
37222;DHT22;23119;51.842;-2.230;2023-03-01T09:09:55;6.70;99.90
37222;DHT22;23119;51.842;-2.230;2023-03-01T09:12:21;6.60;99.90
37222;DHT22;23119;51.842;-2.230;2023-03-01T09:14:50;6.60;99.90
37222;DHT22;23119;51.842;-2.230;2023-03-01T09:17:16;6.70;99.90
37222;DHT22;23119;51.842;-2.230;2023-03-01T09:19:47;6.60;99.90
37222;DHT22;23119;51.842;-2.230;2023-03-01T09:22:15;6.80;99.90
37222;DHT22;23119;51.842;-2.230;2023-03-01T09:24:44;6.90;99.90
37222;DHT22;23119;51.842;-2.230;2023-03-01T09:27:12;6.90;99.90
37222;DHT22;23119;51.842;-2.230;2023-03-01T09:29:40;7.00;99.90
37222;DHT22;23119;51.842;-2.230;2023-03-01T09:32:08;7.10;99.90
37222;DHT22;23119;51.842;-2.230;2023-03-01T09:34:36;7.20;99.90
37222;DHT22;23119;51.842;-2.230;2023-03-01T09:37:37;7.50;99.90
37222;DHT22;23119;51.842;-2.230;2023-03-01T09:40:04;7.60;99.90
37222;DHT22;23119;51.842;-2.230;2023-03-01T09:42:37;8.10;99.90
37222;DHT22;23119;51.842;-2.230;2023-03-01T09:45:19;8.60;99.90
37222;DHT22;23119;51.842;-2.230;2023-03-01T09:47:48;8.60;99.90
37222;DHT22;23119;51.842;-2.230;2023-03-01T09:50:21;8.50;99.90
37222;DHT22;23119;51.842;-2.230;2023-03-01T09:53:21;8.30;99.90
37222;DHT22;23119;51.842;-2.230;2023-03-01T09:56:00;8.20;99.90
37222;DHT22;23119;51.842;-2.230;2023-03-01T10:01:16;7.80;99.90
37222;DHT22;23119;51.842;-2.230;2023-03-01T10:06:33;7.40;99.90
37222;DHT22;23119;51.842;-2.230;2023-03-01T10:09:07;7.40;99.90
37222;DHT22;23119;51.842;-2.230;2023-03-01T10:11:43;7.40;99.90
37222;DHT22;23119;51.842;-2.230;2023-03-01T10:17:19;8.90;99.90
37222;DHT22;23119;51.842;-2.230;2023-03-01T10:19:48;10.00;99.90
37222;DHT22;23119;51.842;-2.230;2023-03-01T10:22:20;10.50;99.90
37222;DHT22;23119;51.842;-2.230;2023-03-01T10:24:47;10.40;99.90
37222;DHT22;23119;51.842;-2.230;2023-03-01T10:27:27;10.00;99.90
37222;DHT22;23119;51.842;-2.230;2023-03-01T10:32:49;9.40;99.90
37222;DHT22;23119;51.842;-2.230;2023-03-01T10:35:29;9.60;99.90
37222;DHT22;23119;51.842;-2.230;2023-03-01T10:38:08;9.70;99.90
37222;DHT22;23119;51.842;-2.230;2023-03-01T10:40:36;10.00;99.90
37222;DHT22;23119;51.842;-2.230;2023-03-01T10:43:06;10.00;99.90
37222;DHT22;23119;51.842;-2.230;2023-03-01T10:45:37;10.00;99.90
37222;DHT22;23119;51.842;-2.230;2023-03-01T10:48:21;9.60;99.90
37222;DHT22;23119;51.842;-2.230;2023-03-01T10:53:29;8.90;99.90
37222;DHT22;23119;51.842;-2.230;2023-03-01T10:56:19;8.90;99.90
37222;DHT22;23119;51.842;-2.230;2023-03-01T10:59:01;8.90;99.90
37222;DHT22;23119;51.842;-2.230;2023-03-01T11:01:33;9.10;99.90
37222;DHT22;23119;51.842;-2.230;2023-03-01T11:04:18;9.10;99.90
37222;DHT22;23119;51.842;-2.230;2023-03-01T11:06:58;9.20;99.90
37222;DHT22;23119;51.842;-2.230;2023-03-01T11:09:24;9.00;99.90
37222;DHT22;23119;51.842;-2.230;2023-03-01T11:11:59;8.90;99.90
37222;DHT22;23119;51.842;-2.230;2023-03-01T11:15:00;8.70;99.90
37222;DHT22;23119;51.842;-2.230;2023-03-01T11:17:36;8.60;99.90
37222;DHT22;23119;51.842;-2.230;2023-03-01T11:23:14;8.50;99.90
37222;DHT22;23119;51.842;-2.230;2023-03-01T11:26:05;8.40;99.90
37222;DHT22;23119;51.842;-2.230;2023-03-01T11:28:38;8.30;99.90
37222;DHT22;23119;51.842;-2.230;2023-03-01T11:31:20;8.20;99.90
37222;DHT22;23119;51.842;-2.230;2023-03-01T11:34:19;8.20;99.90
37222;DHT22;23119;51.842;-2.230;2023-03-01T11:37:00;8.20;99.90
37222;DHT22;23119;51.842;-2.230;2023-03-01T11:39:37;8.30;99.90
37222;DHT22;23119;51.842;-2.230;2023-03-01T11:42:48;8.50;99.90
37222;DHT22;23119;51.842;-2.230;2023-03-01T11:45:24;8.80;99.90
37222;DHT22;23119;51.842;-2.230;2023-03-01T11:50:47;8.70;99.90
37222;DHT22;23119;51.842;-2.230;2023-03-01T11:56:35;8.40;99.90
37222;DHT22;23119;51.842;-2.230;2023-03-01T11:59:23;8.20;99.90
37222;DHT22;23119;51.842;-2.230;2023-03-01T12:10:36;7.80;99.90
37222;DHT22;23119;51.842;-2.230;2023-03-01T12:29:24;8.10;99.90
37222;DHT22;23119;51.842;-2.230;2023-03-01T12:35:16;8.60;99.90
37222;DHT22;23119;51.842;-2.230;2023-03-01T12:46:23;9.30;99.90
37222;DHT22;23119;51.842;-2.230;2023-03-01T12:54:57;9.30;99.90
37222;DHT22;23119;51.842;-2.230;2023-03-01T12:57:37;9.30;99.90
37222;DHT22;23119;51.842;-2.230;2023-03-01T13:09:19;8.70;99.90
37222;DHT22;23119;51.842;-2.230;2023-03-01T13:11:48;8.80;99.90
37222;DHT22;23119;51.842;-2.230;2023-03-01T13:16:54;8.90;99.90
37222;DHT22;23119;51.842;-2.230;2023-03-01T13:19:23;9.00;99.90
37222;DHT22;23119;51.842;-2.230;2023-03-01T13:21:54;9.10;99.90
37222;DHT22;23119;51.842;-2.230;2023-03-01T13:24:33;9.10;99.90
37222;DHT22;23119;51.842;-2.230;2023-03-01T13:32:24;9.30;99.90
37222;DHT22;23119;51.842;-2.230;2023-03-01T13:35:02;9.30;99.90
37222;DHT22;23119;51.842;-2.230;2023-03-01T13:37:35;9.20;99.90
37222;DHT22;23119;51.842;-2.230;2023-03-01T13:42:55;9.50;99.90
37222;DHT22;23119;51.842;-2.230;2023-03-01T13:45:38;9.30;99.90
37222;DHT22;23119;51.842;-2.230;2023-03-01T13:48:23;9.40;99.90
37222;DHT22;23119;51.842;-2.230;2023-03-01T13:50:55;9.40;99.90
37222;DHT22;23119;51.842;-2.230;2023-03-01T13:53:25;9.30;99.90
37222;DHT22;23119;51.842;-2.230;2023-03-01T13:59:01;9.00;99.90
37222;DHT22;23119;51.842;-2.230;2023-03-01T14:01:33;8.80;99.90
37222;DHT22;23119;51.842;-2.230;2023-03-01T14:04:02;8.70;99.90
37222;DHT22;23119;51.842;-2.230;2023-03-01T14:06:32;8.60;99.90
37222;DHT22;23119;51.842;-2.230;2023-03-01T14:09:31;8.70;99.90
37222;DHT22;23119;51.842;-2.230;2023-03-01T14:12:37;8.30;99.90
37222;DHT22;23119;51.842;-2.230;2023-03-01T14:21:23;9.00;99.90
37222;DHT22;23119;51.842;-2.230;2023-03-01T14:23:54;9.10;99.90
37222;DHT22;23119;51.842;-2.230;2023-03-01T14:26:22;9.20;99.90
37222;DHT22;23119;51.842;-2.230;2023-03-01T14:28:52;9.20;99.90
37222;DHT22;23119;51.842;-2.230;2023-03-01T14:31:47;9.40;99.90
37222;DHT22;23119;51.842;-2.230;2023-03-01T14:34:23;9.40;99.90
37222;DHT22;23119;51.842;-2.230;2023-03-01T14:36:52;9.40;99.90
37222;DHT22;23119;51.842;-2.230;2023-03-01T14:39:25;9.40;99.90
37222;DHT22;23119;51.842;-2.230;2023-03-01T14:41:57;9.60;99.90
37222;DHT22;23119;51.842;-2.230;2023-03-01T14:44:25;9.60;99.90
37222;DHT22;23119;51.842;-2.230;2023-03-01T14:46:55;9.50;99.90
37222;DHT22;23119;51.842;-2.230;2023-03-01T14:49:29;9.40;99.90
37222;DHT22;23119;51.842;-2.230;2023-03-01T14:52:05;9.30;99.90
37222;DHT22;23119;51.842;-2.230;2023-03-01T14:54:46;9.20;99.90
37222;DHT22;23119;51.842;-2.230;2023-03-01T14:57:23;9.00;99.90
37222;DHT22;23119;51.842;-2.230;2023-03-01T14:59:54;8.90;99.90
37222;DHT22;23119;51.842;-2.230;2023-03-01T15:02:26;9.00;99.90
37222;DHT22;23119;51.842;-2.230;2023-03-01T15:05:03;8.90;99.90
37222;DHT22;23119;51.842;-2.230;2023-03-01T15:07:35;9.00;99.90
37222;DHT22;23119;51.842;-2.230;2023-03-01T15:10:04;9.00;99.90
37222;DHT22;23119;51.842;-2.230;2023-03-01T15:15:18;9.20;99.90
37222;DHT22;23119;51.842;-2.230;2023-03-01T15:17:44;9.40;99.90
37222;DHT22;23119;51.842;-2.230;2023-03-01T15:20:18;9.50;99.90
37222;DHT22;23119;51.842;-2.230;2023-03-01T15:22:47;9.60;99.90
37222;DHT22;23119;51.842;-2.230;2023-03-01T15:25:27;9.70;99.90
37222;DHT22;23119;51.842;-2.230;2023-03-01T15:27:58;9.80;99.90
37222;DHT22;23119;51.842;-2.230;2023-03-01T15:30:35;9.70;99.90
37222;DHT22;23119;51.842;-2.230;2023-03-01T15:35:56;9.60;99.90
37222;DHT22;23119;51.842;-2.230;2023-03-01T15:38:34;9.60;99.90
37222;DHT22;23119;51.842;-2.230;2023-03-01T15:41:05;9.60;99.90
37222;DHT22;23119;51.842;-2.230;2023-03-01T15:43:49;9.50;99.90
37222;DHT22;23119;51.842;-2.230;2023-03-01T15:46:56;9.40;99.90
37222;DHT22;23119;51.842;-2.230;2023-03-01T15:55:06;9.30;99.90
37222;DHT22;23119;51.842;-2.230;2023-03-01T15:57:39;9.30;99.90
37222;DHT22;23119;51.842;-2.230;2023-03-01T16:00:05;9.30;99.90
37222;DHT22;23119;51.842;-2.230;2023-03-01T16:02:37;9.20;99.90
37222;DHT22;23119;51.842;-2.230;2023-03-01T16:05:03;9.10;99.90
37222;DHT22;23119;51.842;-2.230;2023-03-01T16:07:31;9.10;99.90
37222;DHT22;23119;51.842;-2.230;2023-03-01T16:09:57;9.00;99.90
37222;DHT22;23119;51.842;-2.230;2023-03-01T16:12:23;9.00;99.90
37222;DHT22;23119;51.842;-2.230;2023-03-01T16:14:52;8.90;99.90
37222;DHT22;23119;51.842;-2.230;2023-03-01T16:17:21;8.80;99.90
37222;DHT22;23119;51.842;-2.230;2023-03-01T16:19:46;8.70;99.90
37222;DHT22;23119;51.842;-2.230;2023-03-01T16:22:12;8.60;99.90
37222;DHT22;23119;51.842;-2.230;2023-03-01T16:24:38;8.50;99.90
37222;DHT22;23119;51.842;-2.230;2023-03-01T16:27:09;8.40;99.90
37222;DHT22;23119;51.842;-2.230;2023-03-01T16:29:35;8.40;99.90
37222;DHT22;23119;51.842;-2.230;2023-03-01T16:32:02;8.40;99.90
37222;DHT22;23119;51.842;-2.230;2023-03-01T16:34:30;8.40;99.90
37222;DHT22;23119;51.842;-2.230;2023-03-01T16:36:55;8.40;99.90
37222;DHT22;23119;51.842;-2.230;2023-03-01T16:39:21;8.40;99.90
37222;DHT22;23119;51.842;-2.230;2023-03-01T16:41:55;8.40;99.90
37222;DHT22;23119;51.842;-2.230;2023-03-01T16:44:26;8.30;99.90
37222;DHT22;23119;51.842;-2.230;2023-03-01T16:46:55;8.20;99.90
37222;DHT22;23119;51.842;-2.230;2023-03-01T16:49:21;8.20;99.90
37222;DHT22;23119;51.842;-2.230;2023-03-01T16:51:47;8.20;99.90
37222;DHT22;23119;51.842;-2.230;2023-03-01T16:54:15;8.20;99.90
37222;DHT22;23119;51.842;-2.230;2023-03-01T16:56:45;8.10;99.90
37222;DHT22;23119;51.842;-2.230;2023-03-01T16:59:15;8.10;99.90
37222;DHT22;23119;51.842;-2.230;2023-03-01T17:01:43;8.10;99.90
37222;DHT22;23119;51.842;-2.230;2023-03-01T17:04:12;8.10;99.90
37222;DHT22;23119;51.842;-2.230;2023-03-01T17:06:50;8.10;99.90
37222;DHT22;23119;51.842;-2.230;2023-03-01T17:09:18;8.00;99.90
37222;DHT22;23119;51.842;-2.230;2023-03-01T17:11:52;8.00;99.90
37222;DHT22;23119;51.842;-2.230;2023-03-01T17:14:23;8.00;99.90
37222;DHT22;23119;51.842;-2.230;2023-03-01T17:16:51;8.00;99.90
37222;DHT22;23119;51.842;-2.230;2023-03-01T17:19:26;8.00;99.90
37222;DHT22;23119;51.842;-2.230;2023-03-01T17:22:02;8.00;99.90
37222;DHT22;23119;51.842;-2.230;2023-03-01T17:24:40;8.00;99.90
37222;DHT22;23119;51.842;-2.230;2023-03-01T17:27:06;7.90;99.90
37222;DHT22;23119;51.842;-2.230;2023-03-01T17:29:36;7.90;99.90
37222;DHT22;23119;51.842;-2.230;2023-03-01T17:32:03;7.80;99.90
37222;DHT22;23119;51.842;-2.230;2023-03-01T17:34:32;7.80;99.90
37222;DHT22;23119;51.842;-2.230;2023-03-01T17:37:01;7.70;99.90
37222;DHT22;23119;51.842;-2.230;2023-03-01T17:39:30;7.80;99.90
37222;DHT22;23119;51.842;-2.230;2023-03-01T17:42:01;7.70;99.90
37222;DHT22;23119;51.842;-2.230;2023-03-01T17:44:33;7.60;99.90
37222;DHT22;23119;51.842;-2.230;2023-03-01T17:47:11;7.60;99.90
37222;DHT22;23119;51.842;-2.230;2023-03-01T17:49:36;7.60;99.90
37222;DHT22;23119;51.842;-2.230;2023-03-01T17:52:14;7.60;99.90
37222;DHT22;23119;51.842;-2.230;2023-03-01T17:54:42;7.60;99.90
37222;DHT22;23119;51.842;-2.230;2023-03-01T17:57:17;7.50;99.90